sensor_id;sensor_type;location;lat;lon;timestamp;P1;durP1;ratioP1;P2;durP2;ratioP2
48327;SDS011;34136;51.022;7.082;2022-11-21T00:02:44;27.52;;;6.18;;
48327;SDS011;34136;51.022;7.082;2022-11-21T00:05:30;21.65;;;5.43;;
48327;SDS011;34136;51.022;7.082;2022-11-21T00:08:18;20.08;;;5.57;;
48327;SDS011;34136;51.022;7.082;2022-11-21T00:11:05;22.35;;;6.45;;
48327;SDS011;34136;51.022;7.082;2022-11-21T00:13:51;22.55;;;6.00;;
48327;SDS011;34136;51.022;7.082;2022-11-21T00:16:37;23.63;;;5.65;;
48327;SDS011;34136;51.022;7.082;2022-11-21T00:19:23;23.08;;;5.53;;
48327;SDS011;34136;51.022;7.082;2022-11-21T00:22:09;23.75;;;6.43;;
48327;SDS011;34136;51.022;7.082;2022-11-21T00:24:56;23.08;;;5.68;;
48327;SDS011;34136;51.022;7.082;2022-11-21T00:27:42;21.17;;;4.97;;
48327;SDS011;34136;51.022;7.082;2022-11-21T00:30:28;28.33;;;6.03;;
48327;SDS011;34136;51.022;7.082;2022-11-21T00:33:14;24.30;;;5.57;;
48327;SDS011;34136;51.022;7.082;2022-11-21T00:36:07;19.58;;;5.18;;
48327;SDS011;34136;51.022;7.082;2022-11-21T00:38:53;23.95;;;5.05;;
48327;SDS011;34136;51.022;7.082;2022-11-21T00:41:39;19.33;;;5.03;;
48327;SDS011;34136;51.022;7.082;2022-11-21T00:44:25;20.08;;;5.28;;
48327;SDS011;34136;51.022;7.082;2022-11-21T00:47:12;17.02;;;5.00;;
48327;SDS011;34136;51.022;7.082;2022-11-21T00:49:58;21.00;;;4.75;;
48327;SDS011;34136;51.022;7.082;2022-11-21T00:52:44;18.30;;;4.65;;
48327;SDS011;34136;51.022;7.082;2022-11-21T00:55:30;21.80;;;5.63;;
48327;SDS011;34136;51.022;7.082;2022-11-21T00:58:16;17.92;;;4.70;;
48327;SDS011;34136;51.022;7.082;2022-11-21T01:01:07;24.35;;;5.68;;
48327;SDS011;34136;51.022;7.082;2022-11-21T01:03:56;20.50;;;5.82;;
48327;SDS011;34136;51.022;7.082;2022-11-21T01:06:42;29.00;;;5.78;;
48327;SDS011;34136;51.022;7.082;2022-11-21T01:09:29;18.90;;;5.07;;
48327;SDS011;34136;51.022;7.082;2022-11-21T01:12:15;28.92;;;5.40;;
48327;SDS011;34136;51.022;7.082;2022-11-21T01:15:01;25.27;;;5.07;;
48327;SDS011;34136;51.022;7.082;2022-11-21T01:17:47;23.80;;;5.93;;
48327;SDS011;34136;51.022;7.082;2022-11-21T01:20:37;31.52;;;6.53;;
48327;SDS011;34136;51.022;7.082;2022-11-21T01:23:24;23.73;;;5.45;;
48327;SDS011;34136;51.022;7.082;2022-11-21T01:26:11;19.05;;;4.85;;
48327;SDS011;34136;51.022;7.082;2022-11-21T01:28:59;23.15;;;5.20;;
48327;SDS011;34136;51.022;7.082;2022-11-21T01:31:45;22.13;;;5.47;;
48327;SDS011;34136;51.022;7.082;2022-11-21T01:34:32;19.98;;;4.93;;
48327;SDS011;34136;51.022;7.082;2022-11-21T01:37:18;17.27;;;5.18;;
48327;SDS011;34136;51.022;7.082;2022-11-21T01:40:04;23.00;;;6.13;;
48327;SDS011;34136;51.022;7.082;2022-11-21T01:57:36;24.02;;;6.97;;
48327;SDS011;34136;51.022;7.082;2022-11-21T02:03:17;22.35;;;6.47;;
48327;SDS011;34136;51.022;7.082;2022-11-21T02:06:09;21.10;;;5.25;;
48327;SDS011;34136;51.022;7.082;2022-11-21T02:08:57;18.58;;;5.72;;
48327;SDS011;34136;51.022;7.082;2022-11-21T02:11:57;21.80;;;6.63;;
48327;SDS011;34136;51.022;7.082;2022-11-21T02:14:49;22.75;;;6.20;;
48327;SDS011;34136;51.022;7.082;2022-11-21T02:17:37;28.75;;;7.03;;
48327;SDS011;34136;51.022;7.082;2022-11-21T02:20:25;23.50;;;6.40;;
48327;SDS011;34136;51.022;7.082;2022-11-21T02:23:22;23.45;;;6.72;;
48327;SDS011;34136;51.022;7.082;2022-11-21T02:26:14;28.55;;;7.05;;
48327;SDS011;34136;51.022;7.082;2022-11-21T02:29:00;20.52;;;7.35;;
48327;SDS011;34136;51.022;7.082;2022-11-21T02:31:47;27.80;;;7.72;;
48327;SDS011;34136;51.022;7.082;2022-11-21T02:34:33;19.95;;;7.65;;
48327;SDS011;34136;51.022;7.082;2022-11-21T02:37:19;24.65;;;12.07;;
48327;SDS011;34136;51.022;7.082;2022-11-21T02:40:07;23.33;;;12.98;;
48327;SDS011;34136;51.022;7.082;2022-11-21T02:48:35;21.30;;;15.15;;
48327;SDS011;34136;51.022;7.082;2022-11-21T02:51:22;23.13;;;17.17;;
48327;SDS011;34136;51.022;7.082;2022-11-21T02:54:09;28.58;;;18.85;;
48327;SDS011;34136;51.022;7.082;2022-11-21T02:56:55;33.72;;;19.70;;
48327;SDS011;34136;51.022;7.082;2022-11-21T02:59:41;31.30;;;20.95;;
48327;SDS011;34136;51.022;7.082;2022-11-21T03:02:28;29.58;;;20.45;;
48327;SDS011;34136;51.022;7.082;2022-11-21T03:05:33;32.70;;;22.42;;
48327;SDS011;34136;51.022;7.082;2022-11-21T03:08:38;28.83;;;21.55;;
48327;SDS011;34136;51.022;7.082;2022-11-21T03:11:25;30.20;;;22.02;;
48327;SDS011;34136;51.022;7.082;2022-11-21T03:14:11;30.92;;;22.08;;
48327;SDS011;34136;51.022;7.082;2022-11-21T03:16:57;36.72;;;24.45;;
48327;SDS011;34136;51.022;7.082;2022-11-21T03:19:44;35.30;;;22.85;;
48327;SDS011;34136;51.022;7.082;2022-11-21T03:22:30;31.95;;;22.92;;
48327;SDS011;34136;51.022;7.082;2022-11-21T03:25:17;31.52;;;24.00;;
48327;SDS011;34136;51.022;7.082;2022-11-21T03:28:03;34.75;;;24.17;;
48327;SDS011;34136;51.022;7.082;2022-11-21T03:31:08;37.83;;;23.77;;
48327;SDS011;34136;51.022;7.082;2022-11-21T03:33:55;37.60;;;24.77;;
48327;SDS011;34136;51.022;7.082;2022-11-21T03:37:00;38.17;;;24.67;;
48327;SDS011;34136;51.022;7.082;2022-11-21T03:39:46;34.00;;;24.45;;
48327;SDS011;34136;51.022;7.082;2022-11-21T03:42:33;33.13;;;24.13;;
48327;SDS011;34136;51.022;7.082;2022-11-21T03:45:19;38.58;;;25.40;;
48327;SDS011;34136;51.022;7.082;2022-11-21T03:48:24;37.75;;;25.83;;
48327;SDS011;34136;51.022;7.082;2022-11-21T03:51:10;36.58;;;25.52;;
48327;SDS011;34136;51.022;7.082;2022-11-21T03:53:56;39.25;;;26.27;;
48327;SDS011;34136;51.022;7.082;2022-11-21T03:56:43;37.30;;;26.27;;
48327;SDS011;34136;51.022;7.082;2022-11-21T03:59:48;36.88;;;26.50;;
48327;SDS011;34136;51.022;7.082;2022-11-21T04:02:53;38.08;;;24.98;;
48327;SDS011;34136;51.022;7.082;2022-11-21T04:05:58;38.15;;;26.50;;
48327;SDS011;34136;51.022;7.082;2022-11-21T04:09:03;39.90;;;26.60;;
48327;SDS011;34136;51.022;7.082;2022-11-21T04:11:49;38.97;;;26.65;;
48327;SDS011;34136;51.022;7.082;2022-11-21T04:14:35;37.95;;;26.35;;
48327;SDS011;34136;51.022;7.082;2022-11-21T04:17:21;38.97;;;26.13;;
48327;SDS011;34136;51.022;7.082;2022-11-21T04:20:08;39.50;;;26.60;;
48327;SDS011;34136;51.022;7.082;2022-11-21T04:23:14;44.33;;;30.77;;
48327;SDS011;34136;51.022;7.082;2022-11-21T04:26:18;46.92;;;28.02;;
48327;SDS011;34136;51.022;7.082;2022-11-21T04:29:05;40.35;;;26.70;;
48327;SDS011;34136;51.022;7.082;2022-11-21T04:31:51;42.15;;;28.60;;
48327;SDS011;34136;51.022;7.082;2022-11-21T04:34:37;41.80;;;29.48;;
48327;SDS011;34136;51.022;7.082;2022-11-21T04:37:43;44.40;;;27.92;;
48327;SDS011;34136;51.022;7.082;2022-11-21T04:40:29;44.53;;;29.52;;
48327;SDS011;34136;51.022;7.082;2022-11-21T04:43:35;47.40;;;30.48;;
48327;SDS011;34136;51.022;7.082;2022-11-21T04:46:21;49.42;;;31.27;;
48327;SDS011;34136;51.022;7.082;2022-11-21T04:49:26;48.83;;;30.67;;
48327;SDS011;34136;51.022;7.082;2022-11-21T04:52:12;50.72;;;31.38;;
48327;SDS011;34136;51.022;7.082;2022-11-21T04:54:58;51.33;;;30.42;;
48327;SDS011;34136;51.022;7.082;2022-11-21T04:57:44;45.25;;;30.60;;
48327;SDS011;34136;51.022;7.082;2022-11-21T05:00:49;44.63;;;28.88;;
48327;SDS011;34136;51.022;7.082;2022-11-21T05:03:35;51.63;;;29.70;;
48327;SDS011;34136;51.022;7.082;2022-11-21T05:06:40;52.63;;;29.60;;
48327;SDS011;34136;51.022;7.082;2022-11-21T05:09:26;45.75;;;29.90;;
48327;SDS011;34136;51.022;7.082;2022-11-21T05:12:12;47.17;;;29.10;;
48327;SDS011;34136;51.022;7.082;2022-11-21T05:14:59;47.25;;;29.83;;
48327;SDS011;34136;51.022;7.082;2022-11-21T05:17:45;48.33;;;29.88;;
48327;SDS011;34136;51.022;7.082;2022-11-21T05:20:31;49.22;;;30.38;;
48327;SDS011;34136;51.022;7.082;2022-11-21T05:23:17;46.88;;;29.33;;
48327;SDS011;34136;51.022;7.082;2022-11-21T05:26:04;50.95;;;29.10;;
48327;SDS011;34136;51.022;7.082;2022-11-21T05:28:50;44.33;;;28.58;;
48327;SDS011;34136;51.022;7.082;2022-11-21T05:31:36;46.75;;;28.70;;
48327;SDS011;34136;51.022;7.082;2022-11-21T05:34:22;44.53;;;28.80;;
48327;SDS011;34136;51.022;7.082;2022-11-21T05:37:09;45.22;;;30.05;;
48327;SDS011;34136;51.022;7.082;2022-11-21T05:39:58;50.20;;;30.33;;
48327;SDS011;34136;51.022;7.082;2022-11-21T05:43:02;49.38;;;28.60;;
48327;SDS011;34136;51.022;7.082;2022-11-21T05:45:48;46.08;;;28.92;;
48327;SDS011;34136;51.022;7.082;2022-11-21T05:48:35;54.30;;;29.25;;
48327;SDS011;34136;51.022;7.082;2022-11-21T05:51:21;46.55;;;27.58;;
48327;SDS011;34136;51.022;7.082;2022-11-21T05:54:11;46.80;;;28.67;;
48327;SDS011;34136;51.022;7.082;2022-11-21T05:56:57;56.15;;;29.23;;
48327;SDS011;34136;51.022;7.082;2022-11-21T05:59:44;51.70;;;29.50;;
48327;SDS011;34136;51.022;7.082;2022-11-21T06:02:30;50.42;;;31.27;;
48327;SDS011;34136;51.022;7.082;2022-11-21T06:05:35;54.08;;;30.80;;
48327;SDS011;34136;51.022;7.082;2022-11-21T06:08:21;57.25;;;31.85;;
48327;SDS011;34136;51.022;7.082;2022-11-21T06:11:08;58.08;;;34.92;;
48327;SDS011;34136;51.022;7.082;2022-11-21T06:13:55;56.13;;;34.00;;
48327;SDS011;34136;51.022;7.082;2022-11-21T06:17:00;55.78;;;33.53;;
48327;SDS011;34136;51.022;7.082;2022-11-21T06:19:46;61.83;;;35.45;;
48327;SDS011;34136;51.022;7.082;2022-11-21T06:22:33;55.53;;;34.80;;
48327;SDS011;34136;51.022;7.082;2022-11-21T06:25:19;55.42;;;35.22;;
48327;SDS011;34136;51.022;7.082;2022-11-21T06:28:05;57.45;;;34.47;;
48327;SDS011;34136;51.022;7.082;2022-11-21T06:30:52;58.03;;;33.72;;
48327;SDS011;34136;51.022;7.082;2022-11-21T06:33:38;64.70;;;36.13;;
48327;SDS011;34136;51.022;7.082;2022-11-21T06:36:44;59.55;;;35.25;;
48327;SDS011;34136;51.022;7.082;2022-11-21T06:39:30;61.88;;;36.78;;
48327;SDS011;34136;51.022;7.082;2022-11-21T06:42:16;55.58;;;33.75;;
48327;SDS011;34136;51.022;7.082;2022-11-21T06:45:03;57.13;;;33.72;;
48327;SDS011;34136;51.022;7.082;2022-11-21T06:48:08;64.97;;;36.63;;
48327;SDS011;34136;51.022;7.082;2022-11-21T06:50:54;71.65;;;38.97;;
48327;SDS011;34136;51.022;7.082;2022-11-21T06:53:40;61.45;;;36.17;;
48327;SDS011;34136;51.022;7.082;2022-11-21T06:56:28;59.97;;;34.90;;
48327;SDS011;34136;51.022;7.082;2022-11-21T06:59:34;58.38;;;34.47;;
48327;SDS011;34136;51.022;7.082;2022-11-21T07:02:20;55.40;;;34.53;;
48327;SDS011;34136;51.022;7.082;2022-11-21T07:05:25;58.65;;;34.83;;
48327;SDS011;34136;51.022;7.082;2022-11-21T07:08:11;57.97;;;33.75;;
48327;SDS011;34136;51.022;7.082;2022-11-21T07:11:05;53.67;;;33.67;;
48327;SDS011;34136;51.022;7.082;2022-11-21T07:13:53;56.03;;;32.75;;
48327;SDS011;34136;51.022;7.082;2022-11-21T07:16:39;57.60;;;35.58;;
48327;SDS011;34136;51.022;7.082;2022-11-21T07:19:44;60.47;;;33.95;;
48327;SDS011;34136;51.022;7.082;2022-11-21T07:22:52;53.50;;;30.10;;
48327;SDS011;34136;51.022;7.082;2022-11-21T07:26:00;49.08;;;30.80;;
48327;SDS011;34136;51.022;7.082;2022-11-21T07:29:06;41.22;;;25.58;;
48327;SDS011;34136;51.022;7.082;2022-11-21T07:31:53;37.78;;;24.02;;
48327;SDS011;34136;51.022;7.082;2022-11-21T07:34:39;32.38;;;20.38;;
48327;SDS011;34136;51.022;7.082;2022-11-21T07:37:25;32.97;;;18.67;;
48327;SDS011;34136;51.022;7.082;2022-11-21T07:40:30;25.83;;;16.60;;
48327;SDS011;34136;51.022;7.082;2022-11-21T07:43:35;24.15;;;17.52;;
48327;SDS011;34136;51.022;7.082;2022-11-21T07:46:21;24.60;;;16.17;;
48327;SDS011;34136;51.022;7.082;2022-11-21T07:49:26;25.20;;;16.33;;
48327;SDS011;34136;51.022;7.082;2022-11-21T07:52:12;23.98;;;17.13;;
48327;SDS011;34136;51.022;7.082;2022-11-21T07:54:58;23.45;;;16.58;;
48327;SDS011;34136;51.022;7.082;2022-11-21T07:57:44;24.17;;;16.65;;
48327;SDS011;34136;51.022;7.082;2022-11-21T08:00:31;20.63;;;15.93;;
48327;SDS011;34136;51.022;7.082;2022-11-21T08:03:37;23.95;;;15.75;;
48327;SDS011;34136;51.022;7.082;2022-11-21T08:06:23;22.80;;;15.07;;
48327;SDS011;34136;51.022;7.082;2022-11-21T08:09:10;24.17;;;14.80;;
48327;SDS011;34136;51.022;7.082;2022-11-21T08:11:56;21.13;;;13.73;;
48327;SDS011;34136;51.022;7.082;2022-11-21T08:15:01;25.77;;;13.43;;
48327;SDS011;34136;51.022;7.082;2022-11-21T08:17:47;19.98;;;12.90;;
48327;SDS011;34136;51.022;7.082;2022-11-21T08:20:34;22.05;;;11.93;;
48327;SDS011;34136;51.022;7.082;2022-11-21T08:23:20;16.73;;;11.30;;
48327;SDS011;34136;51.022;7.082;2022-11-21T08:26:07;16.48;;;10.95;;
48327;SDS011;34136;51.022;7.082;2022-11-21T08:28:54;20.05;;;10.85;;
48327;SDS011;34136;51.022;7.082;2022-11-21T08:31:40;16.75;;;11.07;;
48327;SDS011;34136;51.022;7.082;2022-11-21T08:34:29;15.93;;;11.20;;
48327;SDS011;34136;51.022;7.082;2022-11-21T08:37:34;17.95;;;10.57;;
48327;SDS011;34136;51.022;7.082;2022-11-21T08:40:20;17.83;;;10.18;;
48327;SDS011;34136;51.022;7.082;2022-11-21T08:43:08;17.02;;;9.55;;
48327;SDS011;34136;51.022;7.082;2022-11-21T08:45:54;15.45;;;9.60;;
48327;SDS011;34136;51.022;7.082;2022-11-21T08:48:40;15.38;;;10.00;;
48327;SDS011;34136;51.022;7.082;2022-11-21T08:51:26;17.33;;;9.85;;
48327;SDS011;34136;51.022;7.082;2022-11-21T08:54:12;21.08;;;9.30;;
48327;SDS011;34136;51.022;7.082;2022-11-21T08:56:59;16.40;;;9.50;;
48327;SDS011;34136;51.022;7.082;2022-11-21T08:59:45;15.93;;;9.13;;
48327;SDS011;34136;51.022;7.082;2022-11-21T09:02:32;18.00;;;9.88;;
48327;SDS011;34136;51.022;7.082;2022-11-21T09:05:18;20.35;;;9.38;;
48327;SDS011;34136;51.022;7.082;2022-11-21T09:08:05;15.40;;;9.38;;
48327;SDS011;34136;51.022;7.082;2022-11-21T09:10:51;17.65;;;9.70;;
48327;SDS011;34136;51.022;7.082;2022-11-21T09:13:38;12.85;;;9.05;;
48327;SDS011;34136;51.022;7.082;2022-11-21T09:16:24;16.02;;;9.93;;
48327;SDS011;34136;51.022;7.082;2022-11-21T09:19:10;16.88;;;9.70;;
48327;SDS011;34136;51.022;7.082;2022-11-21T09:21:56;15.68;;;10.32;;
48327;SDS011;34136;51.022;7.082;2022-11-21T09:24:43;16.75;;;10.63;;
48327;SDS011;34136;51.022;7.082;2022-11-21T09:27:29;19.70;;;12.75;;
48327;SDS011;34136;51.022;7.082;2022-11-21T09:30:15;17.98;;;12.73;;
48327;SDS011;34136;51.022;7.082;2022-11-21T09:33:03;17.58;;;13.88;;
48327;SDS011;34136;51.022;7.082;2022-11-21T09:35:56;20.65;;;13.52;;
48327;SDS011;34136;51.022;7.082;2022-11-21T09:38:43;17.52;;;14.07;;
48327;SDS011;34136;51.022;7.082;2022-11-21T09:47:46;18.95;;;13.38;;
48327;SDS011;34136;51.022;7.082;2022-11-21T09:50:35;22.67;;;14.13;;
48327;SDS011;34136;51.022;7.082;2022-11-21T09:53:25;19.52;;;13.32;;
48327;SDS011;34136;51.022;7.082;2022-11-21T09:56:16;19.73;;;14.07;;
48327;SDS011;34136;51.022;7.082;2022-11-21T10:02:15;19.20;;;13.65;;
48327;SDS011;34136;51.022;7.082;2022-11-21T10:05:07;21.13;;;14.13;;
48327;SDS011;34136;51.022;7.082;2022-11-21T10:07:58;23.63;;;14.05;;
48327;SDS011;34136;51.022;7.082;2022-11-21T10:10:54;21.10;;;14.23;;
48327;SDS011;34136;51.022;7.082;2022-11-21T10:14:10;19.38;;;13.73;;
48327;SDS011;34136;51.022;7.082;2022-11-21T10:23:53;17.30;;;12.93;;
48327;SDS011;34136;51.022;7.082;2022-11-21T10:27:28;15.98;;;11.50;;
48327;SDS011;34136;51.022;7.082;2022-11-21T10:30:19;18.10;;;11.95;;
48327;SDS011;34136;51.022;7.082;2022-11-21T10:33:10;14.43;;;11.63;;
48327;SDS011;34136;51.022;7.082;2022-11-21T10:36:22;16.40;;;12.15;;
48327;SDS011;34136;51.022;7.082;2022-11-21T10:39:14;19.90;;;11.98;;
48327;SDS011;34136;51.022;7.082;2022-11-21T10:45:00;16.17;;;11.40;;
48327;SDS011;34136;51.022;7.082;2022-11-21T11:21:47;9.90;;;6.68;;
48327;SDS011;34136;51.022;7.082;2022-11-21T11:24:33;11.10;;;5.20;;
48327;SDS011;34136;51.022;7.082;2022-11-21T11:27:25;10.25;;;4.63;;
48327;SDS011;34136;51.022;7.082;2022-11-21T11:30:15;10.52;;;5.00;;
48327;SDS011;34136;51.022;7.082;2022-11-21T11:33:38;8.80;;;4.50;;
48327;SDS011;34136;51.022;7.082;2022-11-21T11:39:17;6.68;;;3.28;;
48327;SDS011;34136;51.022;7.082;2022-11-21T11:48:17;6.85;;;2.63;;
48327;SDS011;34136;51.022;7.082;2022-11-21T11:51:24;7.18;;;3.08;;
48327;SDS011;34136;51.022;7.082;2022-11-21T11:54:18;5.90;;;2.75;;
48327;SDS011;34136;51.022;7.082;2022-11-21T11:57:15;7.82;;;2.83;;
48327;SDS011;34136;51.022;7.082;2022-11-21T12:00:05;7.70;;;3.20;;
48327;SDS011;34136;51.022;7.082;2022-11-21T12:09:58;6.15;;;2.22;;
48327;SDS011;34136;51.022;7.082;2022-11-21T12:13:12;5.38;;;2.40;;
48327;SDS011;34136;51.022;7.082;2022-11-21T12:16:21;6.28;;;2.72;;
48327;SDS011;34136;51.022;7.082;2022-11-21T12:19:11;6.93;;;2.20;;
48327;SDS011;34136;51.022;7.082;2022-11-21T12:22:18;4.53;;;1.65;;
48327;SDS011;34136;51.022;7.082;2022-11-21T12:25:11;4.22;;;2.15;;
48327;SDS011;34136;51.022;7.082;2022-11-21T12:28:22;4.55;;;2.35;;
48327;SDS011;34136;51.022;7.082;2022-11-21T12:44:37;4.55;;;0.85;;
48327;SDS011;34136;51.022;7.082;2022-11-21T12:51:11;5.57;;;1.83;;
48327;SDS011;34136;51.022;7.082;2022-11-21T12:57:14;6.38;;;1.45;;
48327;SDS011;34136;51.022;7.082;2022-11-21T13:00:08;5.30;;;1.40;;
48327;SDS011;34136;51.022;7.082;2022-11-21T13:06:46;3.65;;;1.27;;
48327;SDS011;34136;51.022;7.082;2022-11-21T13:09:42;6.30;;;1.52;;
48327;SDS011;34136;51.022;7.082;2022-11-21T13:12:44;4.28;;;1.48;;
48327;SDS011;34136;51.022;7.082;2022-11-21T13:15:42;5.10;;;1.30;;
48327;SDS011;34136;51.022;7.082;2022-11-21T13:18:50;3.00;;;1.30;;
48327;SDS011;34136;51.022;7.082;2022-11-21T13:21:41;5.35;;;1.20;;
48327;SDS011;34136;51.022;7.082;2022-11-21T13:24:52;6.05;;;1.20;;
48327;SDS011;34136;51.022;7.082;2022-11-21T13:27:44;3.13;;;1.25;;
48327;SDS011;34136;51.022;7.082;2022-11-21T13:30:30;3.67;;;1.50;;
48327;SDS011;34136;51.022;7.082;2022-11-21T13:42:03;7.43;;;1.50;;
48327;SDS011;34136;51.022;7.082;2022-11-21T13:45:35;6.10;;;1.42;;
48327;SDS011;34136;51.022;7.082;2022-11-21T13:49:04;4.63;;;1.42;;
48327;SDS011;34136;51.022;7.082;2022-11-21T13:51:56;5.43;;;1.30;;
48327;SDS011;34136;51.022;7.082;2022-11-21T13:57:53;4.60;;;1.15;;
48327;SDS011;34136;51.022;7.082;2022-11-21T14:07:21;5.60;;;1.40;;
48327;SDS011;34136;51.022;7.082;2022-11-21T14:10:40;6.40;;;2.00;;
48327;SDS011;34136;51.022;7.082;2022-11-21T14:13:30;9.57;;;2.08;;
48327;SDS011;34136;51.022;7.082;2022-11-21T14:16:41;5.38;;;1.45;;
48327;SDS011;34136;51.022;7.082;2022-11-21T14:22:26;7.75;;;1.58;;
48327;SDS011;34136;51.022;7.082;2022-11-21T14:25:14;5.15;;;1.70;;
48327;SDS011;34136;51.022;7.082;2022-11-21T14:28:29;4.95;;;1.30;;
48327;SDS011;34136;51.022;7.082;2022-11-21T14:31:43;4.88;;;1.33;;
48327;SDS011;34136;51.022;7.082;2022-11-21T14:34:33;5.88;;;1.50;;
48327;SDS011;34136;51.022;7.082;2022-11-21T14:37:19;4.00;;;1.30;;
48327;SDS011;34136;51.022;7.082;2022-11-21T14:40:09;5.68;;;1.33;;
48327;SDS011;34136;51.022;7.082;2022-11-21T14:43:20;3.30;;;1.15;;
48327;SDS011;34136;51.022;7.082;2022-11-21T14:46:35;7.85;;;2.13;;
48327;SDS011;34136;51.022;7.082;2022-11-21T14:49:48;6.95;;;2.40;;
48327;SDS011;34136;51.022;7.082;2022-11-21T14:52:35;6.60;;;1.85;;
48327;SDS011;34136;51.022;7.082;2022-11-21T14:55:22;6.78;;;1.50;;
48327;SDS011;34136;51.022;7.082;2022-11-21T14:58:14;5.53;;;1.55;;
48327;SDS011;34136;51.022;7.082;2022-11-21T15:01:27;3.80;;;1.10;;
48327;SDS011;34136;51.022;7.082;2022-11-21T15:04:17;5.15;;;1.40;;
48327;SDS011;34136;51.022;7.082;2022-11-21T15:07:34;6.85;;;1.65;;
48327;SDS011;34136;51.022;7.082;2022-11-21T15:10:43;6.15;;;1.48;;
48327;SDS011;34136;51.022;7.082;2022-11-21T15:13:29;4.95;;;1.85;;
48327;SDS011;34136;51.022;7.082;2022-11-21T15:16:56;4.38;;;1.40;;
48327;SDS011;34136;51.022;7.082;2022-11-21T15:19:44;3.92;;;1.50;;
48327;SDS011;34136;51.022;7.082;2022-11-21T15:22:35;4.20;;;1.30;;
48327;SDS011;34136;51.022;7.082;2022-11-21T15:25:24;4.00;;;1.48;;
48327;SDS011;34136;51.022;7.082;2022-11-21T15:28:15;2.97;;;1.23;;
48327;SDS011;34136;51.022;7.082;2022-11-21T15:31:24;4.10;;;1.30;;
48327;SDS011;34136;51.022;7.082;2022-11-21T15:34:29;5.30;;;1.20;;
48327;SDS011;34136;51.022;7.082;2022-11-21T15:37:34;5.05;;;1.42;;
48327;SDS011;34136;51.022;7.082;2022-11-21T15:40:21;6.35;;;1.33;;
48327;SDS011;34136;51.022;7.082;2022-11-21T15:43:07;4.40;;;1.20;;
48327;SDS011;34136;51.022;7.082;2022-11-21T15:45:59;4.65;;;1.70;;
48327;SDS011;34136;51.022;7.082;2022-11-21T15:48:59;4.00;;;1.10;;
48327;SDS011;34136;51.022;7.082;2022-11-21T15:51:46;5.70;;;1.50;;
48327;SDS011;34136;51.022;7.082;2022-11-21T15:54:34;5.13;;;1.58;;
48327;SDS011;34136;51.022;7.082;2022-11-21T15:57:20;7.15;;;1.70;;
48327;SDS011;34136;51.022;7.082;2022-11-21T16:00:25;10.30;;;1.67;;
48327;SDS011;34136;51.022;7.082;2022-11-21T16:03:11;9.40;;;1.95;;
48327;SDS011;34136;51.022;7.082;2022-11-21T16:05:58;6.97;;;1.95;;
48327;SDS011;34136;51.022;7.082;2022-11-21T16:08:44;6.50;;;1.50;;
48327;SDS011;34136;51.022;7.082;2022-11-21T16:11:32;7.13;;;1.63;;
48327;SDS011;34136;51.022;7.082;2022-11-21T16:14:20;7.88;;;2.25;;
48327;SDS011;34136;51.022;7.082;2022-11-21T16:17:06;6.90;;;2.10;;
48327;SDS011;34136;51.022;7.082;2022-11-21T16:20:11;5.55;;;1.70;;
48327;SDS011;34136;51.022;7.082;2022-11-21T16:23:16;8.43;;;2.10;;
48327;SDS011;34136;51.022;7.082;2022-11-21T16:26:03;15.00;;;2.78;;
48327;SDS011;34136;51.022;7.082;2022-11-21T16:28:51;7.15;;;2.22;;
48327;SDS011;34136;51.022;7.082;2022-11-21T16:31:57;6.47;;;1.67;;
48327;SDS011;34136;51.022;7.082;2022-11-21T16:34:43;7.93;;;2.22;;
48327;SDS011;34136;51.022;7.082;2022-11-21T16:37:32;6.97;;;2.15;;
48327;SDS011;34136;51.022;7.082;2022-11-21T16:40:19;6.93;;;2.10;;
48327;SDS011;34136;51.022;7.082;2022-11-21T16:43:14;5.90;;;1.95;;
48327;SDS011;34136;51.022;7.082;2022-11-21T16:46:07;6.53;;;2.22;;
48327;SDS011;34136;51.022;7.082;2022-11-21T16:48:58;8.18;;;2.30;;
48327;SDS011;34136;51.022;7.082;2022-11-21T16:51:46;9.82;;;2.35;;
48327;SDS011;34136;51.022;7.082;2022-11-21T16:54:33;8.13;;;2.05;;
48327;SDS011;34136;51.022;7.082;2022-11-21T16:57:19;7.13;;;2.10;;
48327;SDS011;34136;51.022;7.082;2022-11-21T17:00:05;7.07;;;2.47;;
48327;SDS011;34136;51.022;7.082;2022-11-21T17:02:52;13.10;;;2.28;;
48327;SDS011;34136;51.022;7.082;2022-11-21T17:05:38;8.25;;;2.08;;
48327;SDS011;34136;51.022;7.082;2022-11-21T17:08:26;7.38;;;2.40;;
48327;SDS011;34136;51.022;7.082;2022-11-21T17:11:14;10.25;;;2.75;;
48327;SDS011;34136;51.022;7.082;2022-11-21T17:14:02;7.15;;;2.30;;
48327;SDS011;34136;51.022;7.082;2022-11-21T17:16:50;9.63;;;2.50;;
48327;SDS011;34136;51.022;7.082;2022-11-21T17:19:36;7.47;;;2.58;;
48327;SDS011;34136;51.022;7.082;2022-11-21T17:22:21;6.57;;;2.08;;
48327;SDS011;34136;51.022;7.082;2022-11-21T17:25:08;9.18;;;3.10;;
48327;SDS011;34136;51.022;7.082;2022-11-21T17:27:55;6.95;;;2.47;;
48327;SDS011;34136;51.022;7.082;2022-11-21T17:30:41;7.82;;;2.33;;
48327;SDS011;34136;51.022;7.082;2022-11-21T17:33:27;9.20;;;2.22;;
48327;SDS011;34136;51.022;7.082;2022-11-21T17:36:15;8.20;;;2.33;;
48327;SDS011;34136;51.022;7.082;2022-11-21T17:39:01;7.35;;;2.00;;
48327;SDS011;34136;51.022;7.082;2022-11-21T17:41:48;9.35;;;2.20;;
48327;SDS011;34136;51.022;7.082;2022-11-21T17:44:34;6.22;;;1.90;;
48327;SDS011;34136;51.022;7.082;2022-11-21T17:47:20;4.57;;;1.73;;
48327;SDS011;34136;51.022;7.082;2022-11-21T17:50:06;6.95;;;2.05;;
48327;SDS011;34136;51.022;7.082;2022-11-21T17:53:11;7.32;;;2.67;;
48327;SDS011;34136;51.022;7.082;2022-11-21T17:55:58;9.90;;;2.38;;
48327;SDS011;34136;51.022;7.082;2022-11-21T17:58:45;6.25;;;2.13;;
48327;SDS011;34136;51.022;7.082;2022-11-21T18:01:50;6.03;;;2.53;;
48327;SDS011;34136;51.022;7.082;2022-11-21T18:04:54;6.38;;;2.15;;
48327;SDS011;34136;51.022;7.082;2022-11-21T18:07:40;9.15;;;2.22;;
48327;SDS011;34136;51.022;7.082;2022-11-21T18:10:26;5.82;;;2.50;;
48327;SDS011;34136;51.022;7.082;2022-11-21T18:13:12;7.07;;;2.10;;
48327;SDS011;34136;51.022;7.082;2022-11-21T18:15:59;7.93;;;2.72;;
48327;SDS011;34136;51.022;7.082;2022-11-21T18:18:50;9.55;;;2.65;;
48327;SDS011;34136;51.022;7.082;2022-11-21T18:21:36;9.13;;;2.70;;
48327;SDS011;34136;51.022;7.082;2022-11-21T18:24:22;10.68;;;2.65;;
48327;SDS011;34136;51.022;7.082;2022-11-21T18:27:27;9.05;;;3.00;;
48327;SDS011;34136;51.022;7.082;2022-11-21T18:30:13;5.78;;;2.47;;
48327;SDS011;34136;51.022;7.082;2022-11-21T18:32:59;7.20;;;2.83;;
48327;SDS011;34136;51.022;7.082;2022-11-21T18:35:45;7.25;;;2.38;;
48327;SDS011;34136;51.022;7.082;2022-11-21T18:38:50;7.07;;;2.88;;
48327;SDS011;34136;51.022;7.082;2022-11-21T18:41:37;8.30;;;2.47;;
48327;SDS011;34136;51.022;7.082;2022-11-21T18:44:23;7.47;;;2.63;;
48327;SDS011;34136;51.022;7.082;2022-11-21T18:47:10;6.22;;;2.33;;
48327;SDS011;34136;51.022;7.082;2022-11-21T18:49:55;7.78;;;2.58;;
48327;SDS011;34136;51.022;7.082;2022-11-21T18:52:41;6.15;;;2.80;;
48327;SDS011;34136;51.022;7.082;2022-11-21T18:55:28;7.15;;;2.50;;
48327;SDS011;34136;51.022;7.082;2022-11-21T18:58:14;7.40;;;2.80;;
48327;SDS011;34136;51.022;7.082;2022-11-21T19:01:04;6.30;;;2.78;;
48327;SDS011;34136;51.022;7.082;2022-11-21T19:04:11;7.82;;;3.30;;
48327;SDS011;34136;51.022;7.082;2022-11-21T19:06:57;7.72;;;2.78;;
48327;SDS011;34136;51.022;7.082;2022-11-21T19:09:44;7.97;;;2.80;;
48327;SDS011;34136;51.022;7.082;2022-11-21T19:12:31;9.40;;;2.90;;
48327;SDS011;34136;51.022;7.082;2022-11-21T19:15:17;8.25;;;2.58;;
48327;SDS011;34136;51.022;7.082;2022-11-21T19:18:04;9.43;;;2.83;;